sensor_id;sensor_type;location;lat;lon;timestamp;pressure;altitude;pressure_sealevel;temperature;humidity
35910;BME280;22004;49.120;-0.200;2022-08-19T00:02:11;101439.31;;;19.95;79.42
35910;BME280;22004;49.120;-0.200;2022-08-19T00:04:36;101438.22;;;19.97;80.09
35910;BME280;22004;49.120;-0.200;2022-08-19T00:07:04;101442.59;;;19.87;80.16
35910;BME280;22004;49.120;-0.200;2022-08-19T00:09:29;101434.66;;;19.85;79.80
35910;BME280;22004;49.120;-0.200;2022-08-19T00:11:56;101439.88;;;19.76;80.65
35910;BME280;22004;49.120;-0.200;2022-08-19T00:14:23;101434.25;;;19.79;81.74
35910;BME280;22004;49.120;-0.200;2022-08-19T00:16:49;101439.91;;;19.98;81.19
35910;BME280;22004;49.120;-0.200;2022-08-19T00:19:17;101438.72;;;20.02;81.08
35910;BME280;22004;49.120;-0.200;2022-08-19T00:21:43;101431.38;;;19.93;80.98
35910;BME280;22004;49.120;-0.200;2022-08-19T00:24:11;101436.09;;;19.78;81.35
35910;BME280;22004;49.120;-0.200;2022-08-19T00:26:37;101427.84;;;19.57;82.05
35910;BME280;22004;49.120;-0.200;2022-08-19T00:29:04;101425.59;;;19.87;81.73
35910;BME280;22004;49.120;-0.200;2022-08-19T00:31:30;101432.22;;;19.94;81.64
35910;BME280;22004;49.120;-0.200;2022-08-19T00:33:56;101428.47;;;19.72;81.60
35910;BME280;22004;49.120;-0.200;2022-08-19T00:36:22;101438.63;;;19.68;82.41
35910;BME280;22004;49.120;-0.200;2022-08-19T00:38:48;101436.66;;;19.59;83.00
35910;BME280;22004;49.120;-0.200;2022-08-19T00:41:15;101436.59;;;19.83;82.47
35910;BME280;22004;49.120;-0.200;2022-08-19T00:43:42;101433.31;;;19.91;82.03
35910;BME280;22004;49.120;-0.200;2022-08-19T00:46:08;101435.03;;;19.81;83.35
35910;BME280;22004;49.120;-0.200;2022-08-19T00:48:34;101431.00;;;19.87;83.06
35910;BME280;22004;49.120;-0.200;2022-08-19T00:51:00;101440.75;;;19.88;83.14
35910;BME280;22004;49.120;-0.200;2022-08-19T00:53:28;101440.53;;;19.55;85.08
35910;BME280;22004;49.120;-0.200;2022-08-19T00:55:58;101437.06;;;19.77;84.34
35910;BME280;22004;49.120;-0.200;2022-08-19T00:58:27;101439.50;;;19.69;84.64
35910;BME280;22004;49.120;-0.200;2022-08-19T01:00:53;101435.97;;;19.80;84.37
35910;BME280;22004;49.120;-0.200;2022-08-19T01:03:21;101433.47;;;19.65;85.42
35910;BME280;22004;49.120;-0.200;2022-08-19T01:05:48;101421.88;;;19.76;85.19
35910;BME280;22004;49.120;-0.200;2022-08-19T01:08:15;101414.44;;;19.80;84.82
35910;BME280;22004;49.120;-0.200;2022-08-19T01:10:44;101411.81;;;19.67;85.78
35910;BME280;22004;49.120;-0.200;2022-08-19T01:13:12;101416.19;;;19.45;88.08
35910;BME280;22004;49.120;-0.200;2022-08-19T01:15:42;101413.91;;;19.63;86.82
35910;BME280;22004;49.120;-0.200;2022-08-19T01:18:10;101413.44;;;19.69;86.30
35910;BME280;22004;49.120;-0.200;2022-08-19T01:20:36;101418.31;;;19.64;86.86
35910;BME280;22004;49.120;-0.200;2022-08-19T01:23:03;101414.72;;;19.41;88.89
35910;BME280;22004;49.120;-0.200;2022-08-19T01:25:36;101408.75;;;19.60;86.92
35910;BME280;22004;49.120;-0.200;2022-08-19T01:28:04;101412.91;;;19.53;87.91
35910;BME280;22004;49.120;-0.200;2022-08-19T01:30:34;101417.59;;;19.74;86.00
35910;BME280;22004;49.120;-0.200;2022-08-19T01:33:00;101421.03;;;19.76;86.06
35910;BME280;22004;49.120;-0.200;2022-08-19T01:35:30;101419.06;;;19.66;87.20
35910;BME280;22004;49.120;-0.200;2022-08-19T01:37:59;101430.16;;;19.62;87.58
35910;BME280;22004;49.120;-0.200;2022-08-19T01:40:29;101424.06;;;19.60;87.64
35910;BME280;22004;49.120;-0.200;2022-08-19T01:42:55;101421.72;;;19.55;88.01
35910;BME280;22004;49.120;-0.200;2022-08-19T01:45:23;101431.16;;;19.25;91.50
35910;BME280;22004;49.120;-0.200;2022-08-19T01:47:49;101425.84;;;19.48;89.35
35910;BME280;22004;49.120;-0.200;2022-08-19T01:50:15;101417.19;;;19.56;88.99
35910;BME280;22004;49.120;-0.200;2022-08-19T01:52:43;101417.47;;;19.64;87.81
35910;BME280;22004;49.120;-0.200;2022-08-19T01:55:12;101410.22;;;19.64;88.23
35910;BME280;22004;49.120;-0.200;2022-08-19T01:57:40;101403.00;;;19.53;89.25
35910;BME280;22004;49.120;-0.200;2022-08-19T02:00:10;101406.69;;;19.75;86.62
35910;BME280;22004;49.120;-0.200;2022-08-19T02:02:36;101408.94;;;19.81;86.06
35910;BME280;22004;49.120;-0.200;2022-08-19T02:05:01;101411.09;;;19.65;87.74
35910;BME280;22004;49.120;-0.200;2022-08-19T02:07:26;101408.88;;;19.47;89.46
35910;BME280;22004;49.120;-0.200;2022-08-19T02:09:53;101414.44;;;19.33;90.62
35910;BME280;22004;49.120;-0.200;2022-08-19T02:12:20;101413.88;;;19.41;90.10
35910;BME280;22004;49.120;-0.200;2022-08-19T02:14:46;101412.38;;;19.37;89.69
35910;BME280;22004;49.120;-0.200;2022-08-19T02:17:11;101421.53;;;19.34;90.24
35910;BME280;22004;49.120;-0.200;2022-08-19T02:19:36;101418.13;;;19.08;91.89
35910;BME280;22004;49.120;-0.200;2022-08-19T02:22:02;101418.47;;;19.27;90.51
35910;BME280;22004;49.120;-0.200;2022-08-19T02:24:28;101412.06;;;19.17;90.74
35910;BME280;22004;49.120;-0.200;2022-08-19T02:26:53;101414.09;;;19.38;89.59
35910;BME280;22004;49.120;-0.200;2022-08-19T02:29:19;101413.75;;;19.53;88.22
35910;BME280;22004;49.120;-0.200;2022-08-19T02:31:45;101409.25;;;19.54;88.03
35910;BME280;22004;49.120;-0.200;2022-08-19T02:34:11;101414.84;;;19.04;91.06
35910;BME280;22004;49.120;-0.200;2022-08-19T02:36:37;101411.84;;;19.20;90.78
35910;BME280;22004;49.120;-0.200;2022-08-19T02:39:02;101419.34;;;19.04;92.10
35910;BME280;22004;49.120;-0.200;2022-08-19T02:41:31;101418.84;;;19.34;89.45
35910;BME280;22004;49.120;-0.200;2022-08-19T02:43:58;101414.84;;;19.51;88.50
35910;BME280;22004;49.120;-0.200;2022-08-19T02:46:27;101406.38;;;19.33;89.61
35910;BME280;22004;49.120;-0.200;2022-08-19T02:48:56;101411.06;;;19.07;91.25
35910;BME280;22004;49.120;-0.200;2022-08-19T02:51:25;101414.72;;;19.06;91.91
35910;BME280;22004;49.120;-0.200;2022-08-19T02:53:51;101413.34;;;19.00;91.56
35910;BME280;22004;49.120;-0.200;2022-08-19T02:56:16;101419.72;;;19.10;91.96
35910;BME280;22004;49.120;-0.200;2022-08-19T02:58:42;101414.56;;;19.31;89.75
35910;BME280;22004;49.120;-0.200;2022-08-19T03:01:08;101413.56;;;18.97;91.88
35910;BME280;22004;49.120;-0.200;2022-08-19T03:03:35;101419.63;;;19.12;91.51
35910;BME280;22004;49.120;-0.200;2022-08-19T03:06:12;101412.19;;;18.91;92.82
35910;BME280;22004;49.120;-0.200;2022-08-19T03:08:40;101403.88;;;19.18;91.23
35910;BME280;22004;49.120;-0.200;2022-08-19T03:11:06;101401.63;;;19.37;89.64
35910;BME280;22004;49.120;-0.200;2022-08-19T03:13:36;101397.47;;;19.44;89.19
35910;BME280;22004;49.120;-0.200;2022-08-19T03:16:04;101407.97;;;19.35;89.31
35910;BME280;22004;49.120;-0.200;2022-08-19T03:18:30;101401.63;;;19.37;89.08
35910;BME280;22004;49.120;-0.200;2022-08-19T03:20:55;101402.13;;;19.42;89.12
35910;BME280;22004;49.120;-0.200;2022-08-19T03:23:22;101404.06;;;19.40;89.17
35910;BME280;22004;49.120;-0.200;2022-08-19T03:25:50;101402.56;;;19.24;90.31
35910;BME280;22004;49.120;-0.200;2022-08-19T03:28:16;101411.75;;;19.33;89.94
35910;BME280;22004;49.120;-0.200;2022-08-19T03:30:53;101410.00;;;19.21;90.27
35910;BME280;22004;49.120;-0.200;2022-08-19T03:33:21;101423.16;;;19.37;89.25
35910;BME280;22004;49.120;-0.200;2022-08-19T03:35:46;101420.19;;;19.28;89.62
35910;BME280;22004;49.120;-0.200;2022-08-19T03:38:12;101416.22;;;19.21;90.89
35910;BME280;22004;49.120;-0.200;2022-08-19T03:40:38;101409.44;;;19.40;89.33
35910;BME280;22004;49.120;-0.200;2022-08-19T03:43:03;101408.00;;;19.47;88.73
35910;BME280;22004;49.120;-0.200;2022-08-19T03:45:29;101414.09;;;19.38;88.89
35910;BME280;22004;49.120;-0.200;2022-08-19T03:47:54;101414.47;;;19.44;88.96
35910;BME280;22004;49.120;-0.200;2022-08-19T03:50:20;101411.13;;;19.29;89.60
35910;BME280;22004;49.120;-0.200;2022-08-19T03:52:50;101414.03;;;19.15;91.28
35910;BME280;22004;49.120;-0.200;2022-08-19T03:55:16;101409.75;;;19.24;90.72
35910;BME280;22004;49.120;-0.200;2022-08-19T03:57:42;101417.38;;;19.30;89.82
35910;BME280;22004;49.120;-0.200;2022-08-19T04:00:08;101410.19;;;19.42;88.87
35910;BME280;22004;49.120;-0.200;2022-08-19T04:02:34;101414.47;;;19.44;88.75
35910;BME280;22004;49.120;-0.200;2022-08-19T04:04:59;101417.06;;;19.46;88.68
35910;BME280;22004;49.120;-0.200;2022-08-19T04:07:25;101409.03;;;19.22;90.44
35910;BME280;22004;49.120;-0.200;2022-08-19T04:09:50;101412.13;;;19.40;89.29
35910;BME280;22004;49.120;-0.200;2022-08-19T04:12:17;101410.19;;;19.42;89.28
35910;BME280;22004;49.120;-0.200;2022-08-19T04:14:42;101394.13;;;19.29;89.93
35910;BME280;22004;49.120;-0.200;2022-08-19T04:17:08;101393.31;;;19.40;89.08
35910;BME280;22004;49.120;-0.200;2022-08-19T04:19:35;101399.13;;;19.22;90.11
35910;BME280;22004;49.120;-0.200;2022-08-19T04:22:00;101401.53;;;19.14;91.04
35910;BME280;22004;49.120;-0.200;2022-08-19T04:24:26;101400.66;;;19.38;89.53
35910;BME280;22004;49.120;-0.200;2022-08-19T04:26:52;101407.22;;;19.33;89.15
35910;BME280;22004;49.120;-0.200;2022-08-19T04:29:24;101409.09;;;19.44;88.89
35910;BME280;22004;49.120;-0.200;2022-08-19T04:31:51;101407.16;;;19.46;88.30
35910;BME280;22004;49.120;-0.200;2022-08-19T04:34:20;101413.16;;;19.50;88.21
35910;BME280;22004;49.120;-0.200;2022-08-19T04:36:49;101408.63;;;19.50;88.44
35910;BME280;22004;49.120;-0.200;2022-08-19T04:39:27;101404.09;;;19.51;88.24
35910;BME280;22004;49.120;-0.200;2022-08-19T04:42:15;101406.50;;;19.43;88.82
35910;BME280;22004;49.120;-0.200;2022-08-19T04:44:59;101403.81;;;19.31;89.30
35910;BME280;22004;49.120;-0.200;2022-08-19T04:47:24;101408.09;;;19.34;89.28
35910;BME280;22004;49.120;-0.200;2022-08-19T04:49:50;101412.91;;;19.42;88.89
35910;BME280;22004;49.120;-0.200;2022-08-19T04:52:15;101409.84;;;19.46;88.65
35910;BME280;22004;49.120;-0.200;2022-08-19T04:54:40;101413.38;;;19.47;88.62
35910;BME280;22004;49.120;-0.200;2022-08-19T04:57:07;101416.03;;;19.35;88.94
35910;BME280;22004;49.120;-0.200;2022-08-19T04:59:34;101419.25;;;19.41;88.98
35910;BME280;22004;49.120;-0.200;2022-08-19T05:01:59;101418.75;;;19.47;88.54
35910;BME280;22004;49.120;-0.200;2022-08-19T05:04:24;101422.84;;;19.52;88.30
35910;BME280;22004;49.120;-0.200;2022-08-19T05:06:50;101429.31;;;19.50;88.27
35910;BME280;22004;49.120;-0.200;2022-08-19T05:09:17;101427.34;;;19.52;88.29
35910;BME280;22004;49.120;-0.200;2022-08-19T05:11:43;101437.25;;;19.51;88.09
35910;BME280;22004;49.120;-0.200;2022-08-19T05:14:10;101422.34;;;19.59;87.79
35910;BME280;22004;49.120;-0.200;2022-08-19T05:16:37;101434.19;;;19.56;87.78
35910;BME280;22004;49.120;-0.200;2022-08-19T05:19:03;101432.69;;;19.41;88.79
35910;BME280;22004;49.120;-0.200;2022-08-19T05:21:46;101426.38;;;19.53;88.35
35910;BME280;22004;49.120;-0.200;2022-08-19T05:24:31;101430.03;;;19.52;88.29
35910;BME280;22004;49.120;-0.200;2022-08-19T05:26:59;101431.00;;;19.51;87.64
35910;BME280;22004;49.120;-0.200;2022-08-19T05:29:26;101433.59;;;19.52;87.99
35910;BME280;22004;49.120;-0.200;2022-08-19T05:31:53;101432.00;;;19.61;87.64
35910;BME280;22004;49.120;-0.200;2022-08-19T05:34:21;101424.41;;;19.55;88.15
35910;BME280;22004;49.120;-0.200;2022-08-19T05:36:51;101432.13;;;19.48;88.00
35910;BME280;22004;49.120;-0.200;2022-08-19T05:39:21;101427.34;;;19.52;88.18
35910;BME280;22004;49.120;-0.200;2022-08-19T05:41:50;101421.22;;;19.50;87.91
35910;BME280;22004;49.120;-0.200;2022-08-19T05:44:18;101420.63;;;19.58;87.54
35910;BME280;22004;49.120;-0.200;2022-08-19T05:46:44;101417.91;;;19.46;87.81
35910;BME280;22004;49.120;-0.200;2022-08-19T05:49:12;101425.41;;;19.54;88.04
35910;BME280;22004;49.120;-0.200;2022-08-19T05:51:38;101412.19;;;19.62;87.38
35910;BME280;22004;49.120;-0.200;2022-08-19T05:54:04;101417.84;;;19.59;87.72
35910;BME280;22004;49.120;-0.200;2022-08-19T05:56:31;101426.13;;;19.56;88.00
35910;BME280;22004;49.120;-0.200;2022-08-19T05:58:57;101427.19;;;19.42;88.67
35910;BME280;22004;49.120;-0.200;2022-08-19T06:01:25;101428.81;;;19.56;88.24
35910;BME280;22004;49.120;-0.200;2022-08-19T06:03:51;101414.91;;;19.62;87.87
35910;BME280;22004;49.120;-0.200;2022-08-19T06:06:17;101424.13;;;19.47;88.96
35910;BME280;22004;49.120;-0.200;2022-08-19T06:08:42;101425.63;;;19.51;88.80
35910;BME280;22004;49.120;-0.200;2022-08-19T06:13:42;101421.63;;;19.57;88.79
35910;BME280;22004;49.120;-0.200;2022-08-19T06:16:07;101421.81;;;19.53;89.37
35910;BME280;22004;49.120;-0.200;2022-08-19T06:18:32;101422.19;;;19.38;90.85
35910;BME280;22004;49.120;-0.200;2022-08-19T06:20:58;101427.44;;;19.39;91.17
35910;BME280;22004;49.120;-0.200;2022-08-19T06:23:23;101423.34;;;19.33;92.01
35910;BME280;22004;49.120;-0.200;2022-08-19T06:25:49;101420.09;;;19.41;91.02
35910;BME280;22004;49.120;-0.200;2022-08-19T06:28:14;101429.31;;;19.50;90.08
35910;BME280;22004;49.120;-0.200;2022-08-19T06:30:39;101436.75;;;19.46;91.42
35910;BME280;22004;49.120;-0.200;2022-08-19T06:33:05;101434.69;;;19.50;90.51
35910;BME280;22004;49.120;-0.200;2022-08-19T06:35:30;101437.00;;;19.43;92.16
35910;BME280;22004;49.120;-0.200;2022-08-19T06:37:56;101433.28;;;19.44;92.28
35910;BME280;22004;49.120;-0.200;2022-08-19T06:40:21;101430.59;;;19.44;91.74
35910;BME280;22004;49.120;-0.200;2022-08-19T06:42:47;101426.25;;;19.55;92.50
35910;BME280;22004;49.120;-0.200;2022-08-19T06:45:12;101425.91;;;19.71;90.85
35910;BME280;22004;49.120;-0.200;2022-08-19T06:47:37;101432.75;;;19.63;91.52
35910;BME280;22004;49.120;-0.200;2022-08-19T06:50:03;101430.59;;;19.80;90.97
35910;BME280;22004;49.120;-0.200;2022-08-19T06:52:34;101436.94;;;19.67;91.39
35910;BME280;22004;49.120;-0.200;2022-08-19T06:55:01;101433.63;;;19.75;90.09
35910;BME280;22004;49.120;-0.200;2022-08-19T06:57:27;101431.59;;;19.90;89.21
35910;BME280;22004;49.120;-0.200;2022-08-19T06:59:56;101424.75;;;19.97;89.42
35910;BME280;22004;49.120;-0.200;2022-08-19T07:02:21;101420.94;;;20.23;86.69
35910;BME280;22004;49.120;-0.200;2022-08-19T07:04:51;101416.41;;;20.34;88.59
35910;BME280;22004;49.120;-0.200;2022-08-19T07:07:16;101421.94;;;20.22;88.20
35910;BME280;22004;49.120;-0.200;2022-08-19T07:09:43;101424.50;;;20.23;88.00
35910;BME280;22004;49.120;-0.200;2022-08-19T07:12:12;101429.72;;;20.59;86.59
35910;BME280;22004;49.120;-0.200;2022-08-19T07:14:39;101425.16;;;20.82;84.09
35910;BME280;22004;49.120;-0.200;2022-08-19T07:17:08;101435.63;;;21.61;81.27
35910;BME280;22004;49.120;-0.200;2022-08-19T07:19:35;101431.03;;;21.73;81.49
35910;BME280;22004;49.120;-0.200;2022-08-19T07:22:03;101435.88;;;21.05;82.05
35910;BME280;22004;49.120;-0.200;2022-08-19T07:24:29;101434.88;;;20.73;84.67
35910;BME280;22004;49.120;-0.200;2022-08-19T07:26:57;101428.84;;;20.81;85.04
35910;BME280;22004;49.120;-0.200;2022-08-19T07:29:26;101438.22;;;20.98;84.09
35910;BME280;22004;49.120;-0.200;2022-08-19T07:31:52;101434.94;;;21.48;84.15
35910;BME280;22004;49.120;-0.200;2022-08-19T07:34:18;101432.09;;;22.53;78.72
35910;BME280;22004;49.120;-0.200;2022-08-19T07:36:44;101431.22;;;21.60;80.44
35910;BME280;22004;49.120;-0.200;2022-08-19T07:39:17;101430.28;;;20.96;83.42
35910;BME280;22004;49.120;-0.200;2022-08-19T07:41:44;101438.78;;;20.80;84.04
35910;BME280;22004;49.120;-0.200;2022-08-19T07:44:10;101440.63;;;20.57;84.52
35910;BME280;22004;49.120;-0.200;2022-08-19T07:46:39;101446.41;;;20.41;85.32
35910;BME280;22004;49.120;-0.200;2022-08-19T07:49:06;101449.22;;;20.17;86.73
35910;BME280;22004;49.120;-0.200;2022-08-19T07:51:32;101442.03;;;20.17;87.49
35910;BME280;22004;49.120;-0.200;2022-08-19T07:53:57;101446.06;;;20.23;86.43
35910;BME280;22004;49.120;-0.200;2022-08-19T07:56:23;101446.78;;;20.14;87.25
35910;BME280;22004;49.120;-0.200;2022-08-19T07:58:50;101448.88;;;20.22;86.83
35910;BME280;22004;49.120;-0.200;2022-08-19T08:01:24;101455.84;;;20.13;86.83
35910;BME280;22004;49.120;-0.200;2022-08-19T08:03:52;101456.84;;;20.23;86.55
35910;BME280;22004;49.120;-0.200;2022-08-19T08:06:37;101461.34;;;20.11;87.67
35910;BME280;22004;49.120;-0.200;2022-08-19T08:09:26;101465.66;;;20.02;88.89
35910;BME280;22004;49.120;-0.200;2022-08-19T08:12:23;101466.75;;;20.11;87.68
35910;BME280;22004;49.120;-0.200;2022-08-19T08:14:52;101471.50;;;20.08;88.41
35910;BME280;22004;49.120;-0.200;2022-08-19T08:17:20;101472.88;;;20.13;88.03
35910;BME280;22004;49.120;-0.200;2022-08-19T08:19:46;101469.69;;;20.19;88.26
35910;BME280;22004;49.120;-0.200;2022-08-19T08:22:15;101472.63;;;20.28;86.26
35910;BME280;22004;49.120;-0.200;2022-08-19T08:25:04;101468.84;;;20.30;86.20
35910;BME280;22004;49.120;-0.200;2022-08-19T08:27:29;101476.91;;;20.30;86.52
35910;BME280;22004;49.120;-0.200;2022-08-19T08:29:56;101477.41;;;20.24;86.45
35910;BME280;22004;49.120;-0.200;2022-08-19T08:32:22;101482.28;;;20.08;88.35
35910;BME280;22004;49.120;-0.200;2022-08-19T08:34:47;101484.59;;;20.01;88.66
35910;BME280;22004;49.120;-0.200;2022-08-19T08:37:13;101479.97;;;20.14;87.88
35910;BME280;22004;49.120;-0.200;2022-08-19T08:39:39;101484.13;;;20.18;87.52
35910;BME280;22004;49.120;-0.200;2022-08-19T08:42:27;101485.47;;;20.13;88.03
35910;BME280;22004;49.120;-0.200;2022-08-19T08:44:58;101485.13;;;20.29;87.22
35910;BME280;22004;49.120;-0.200;2022-08-19T08:47:25;101473.75;;;20.36;86.45
35910;BME280;22004;49.120;-0.200;2022-08-19T08:50:17;101477.38;;;20.47;87.02
35910;BME280;22004;49.120;-0.200;2022-08-19T08:52:48;101472.25;;;20.44;86.99
35910;BME280;22004;49.120;-0.200;2022-08-19T08:55:20;101470.41;;;20.44;85.99
35910;BME280;22004;49.120;-0.200;2022-08-19T09:00:26;101473.13;;;20.56;86.55
35910;BME280;22004;49.120;-0.200;2022-08-19T09:02:53;101467.47;;;20.59;86.59
35910;BME280;22004;49.120;-0.200;2022-08-19T09:05:20;101459.75;;;20.54;87.04
35910;BME280;22004;49.120;-0.200;2022-08-19T09:08:00;101472.00;;;20.47;87.07
35910;BME280;22004;49.120;-0.200;2022-08-19T09:15:58;101475.16;;;20.63;86.61
35910;BME280;22004;49.120;-0.200;2022-08-19T09:19:01;101472.59;;;20.84;87.72
35910;BME280;22004;49.120;-0.200;2022-08-19T09:21:24;101464.91;;;20.80;85.48
35910;BME280;22004;49.120;-0.200;2022-08-19T09:23:51;101469.06;;;20.73;85.77
35910;BME280;22004;49.120;-0.200;2022-08-19T09:26:19;101461.44;;;20.78;86.21
35910;BME280;22004;49.120;-0.200;2022-08-19T09:28:47;101462.44;;;20.77;84.74
35910;BME280;22004;49.120;-0.200;2022-08-19T09:31:19;101464.03;;;20.79;84.74
35910;BME280;22004;49.120;-0.200;2022-08-19T09:33:45;101465.59;;;20.93;85.17
35910;BME280;22004;49.120;-0.200;2022-08-19T09:36:14;101469.22;;;21.03;84.73
35910;BME280;22004;49.120;-0.200;2022-08-19T09:38:40;101464.19;;;21.10;83.77
35910;BME280;22004;49.120;-0.200;2022-08-19T09:41:09;101465.47;;;21.27;83.50
35910;BME280;22004;49.120;-0.200;2022-08-19T09:43:36;101465.13;;;21.53;82.66
35910;BME280;22004;49.120;-0.200;2022-08-19T09:46:03;101470.00;;;21.59;82.73
35910;BME280;22004;49.120;-0.200;2022-08-19T09:48:32;101472.31;;;21.31;83.09
35910;BME280;22004;49.120;-0.200;2022-08-19T09:51:05;101476.16;;;21.17;83.28
35910;BME280;22004;49.120;-0.200;2022-08-19T09:53:33;101474.50;;;21.05;82.78
35910;BME280;22004;49.120;-0.200;2022-08-19T09:55:59;101480.28;;;21.00;82.97
35910;BME280;22004;49.120;-0.200;2022-08-19T09:58:24;101474.34;;;21.07;83.41
35910;BME280;22004;49.120;-0.200;2022-08-19T10:00:54;101490.22;;;21.00;83.62
35910;BME280;22004;49.120;-0.200;2022-08-19T10:03:19;101481.16;;;20.90;84.01
35910;BME280;22004;49.120;-0.200;2022-08-19T10:05:45;101483.25;;;20.86;84.41
35910;BME280;22004;49.120;-0.200;2022-08-19T10:08:13;101482.88;;;20.91;84.13
35910;BME280;22004;49.120;-0.200;2022-08-19T10:10:40;101491.19;;;20.99;84.10
35910;BME280;22004;49.120;-0.200;2022-08-19T10:13:08;101482.50;;;20.95;83.70
35910;BME280;22004;49.120;-0.200;2022-08-19T10:15:34;101484.56;;;21.03;84.79
35910;BME280;22004;49.120;-0.200;2022-08-19T10:17:59;101486.16;;;20.94;84.99
35910;BME280;22004;49.120;-0.200;2022-08-19T10:20:25;101494.03;;;20.97;84.44
35910;BME280;22004;49.120;-0.200;2022-08-19T10:22:50;101488.41;;;20.89;84.56
35910;BME280;22004;49.120;-0.200;2022-08-19T10:25:16;101490.22;;;21.00;84.95
35910;BME280;22004;49.120;-0.200;2022-08-19T10:27:41;101488.59;;;21.09;83.86
35910;BME280;22004;49.120;-0.200;2022-08-19T10:30:07;101485.94;;;21.30;84.96
35910;BME280;22004;49.120;-0.200;2022-08-19T10:32:33;101489.75;;;21.27;82.81
35910;BME280;22004;49.120;-0.200;2022-08-19T10:34:59;101494.97;;;21.40;83.15
35910;BME280;22004;49.120;-0.200;2022-08-19T10:37:24;101493.22;;;21.50;82.90
35910;BME280;22004;49.120;-0.200;2022-08-19T10:39:50;101491.09;;;21.65;82.58
35910;BME280;22004;49.120;-0.200;2022-08-19T10:42:16;101494.84;;;21.42;83.35
35910;BME280;22004;49.120;-0.200;2022-08-19T10:44:43;101495.31;;;21.47;82.88
35910;BME280;22004;49.120;-0.200;2022-08-19T10:47:09;101495.09;;;21.39;81.72
35910;BME280;22004;49.120;-0.200;2022-08-19T10:49:34;101506.50;;;21.42;82.04
35910;BME280;22004;49.120;-0.200;2022-08-19T10:52:20;101500.94;;;21.55;82.75
35910;BME280;22004;49.120;-0.200;2022-08-19T10:55:05;101499.31;;;21.64;82.20
35910;BME280;22004;49.120;-0.200;2022-08-19T10:57:50;101503.41;;;21.79;81.51
35910;BME280;22004;49.120;-0.200;2022-08-19T11:00:15;101495.81;;;21.94;80.02
35910;BME280;22004;49.120;-0.200;2022-08-19T11:02:41;101492.66;;;21.89;80.00
35910;BME280;22004;49.120;-0.200;2022-08-19T11:05:07;101492.34;;;21.61;81.57
35910;BME280;22004;49.120;-0.200;2022-08-19T11:07:34;101505.50;;;21.55;87.30
35910;BME280;22004;49.120;-0.200;2022-08-19T11:10:01;101499.88;;;21.35;86.21
35910;BME280;22004;49.120;-0.200;2022-08-19T11:12:28;101497.81;;;21.39;87.80
35910;BME280;22004;49.120;-0.200;2022-08-19T11:14:53;101502.84;;;21.32;87.23
35910;BME280;22004;49.120;-0.200;2022-08-19T11:17:19;101490.41;;;21.19;85.66
35910;BME280;22004;49.120;-0.200;2022-08-19T11:19:45;101494.00;;;21.09;88.56
35910;BME280;22004;49.120;-0.200;2022-08-19T11:22:11;101487.63;;;21.10;89.14
35910;BME280;22004;49.120;-0.200;2022-08-19T11:24:37;101494.38;;;21.04;86.03
35910;BME280;22004;49.120;-0.200;2022-08-19T11:27:07;101495.97;;;20.95;89.13
35910;BME280;22004;49.120;-0.200;2022-08-19T11:29:36;101493.28;;;20.95;86.96
35910;BME280;22004;49.120;-0.200;2022-08-19T11:32:08;101495.50;;;20.90;91.49
35910;BME280;22004;49.120;-0.200;2022-08-19T11:34:34;101500.66;;;20.93;89.29
35910;BME280;22004;49.120;-0.200;2022-08-19T11:37:01;101508.00;;;20.91;90.68
35910;BME280;22004;49.120;-0.200;2022-08-19T11:39:28;101503.09;;;20.96;93.36
35910;BME280;22004;49.120;-0.200;2022-08-19T11:41:54;101514.38;;;21.01;92.26
35910;BME280;22004;49.120;-0.200;2022-08-19T11:44:20;101512.91;;;20.97;93.60
35910;BME280;22004;49.120;-0.200;2022-08-19T11:46:45;101508.72;;;21.05;91.82
35910;BME280;22004;49.120;-0.200;2022-08-19T11:49:13;101508.22;;;20.99;96.62
35910;BME280;22004;49.120;-0.200;2022-08-19T11:51:38;101516.19;;;21.01;97.57
35910;BME280;22004;49.120;-0.200;2022-08-19T11:54:05;101509.09;;;21.00;94.70
35910;BME280;22004;49.120;-0.200;2022-08-19T11:56:31;101517.06;;;20.90;94.48
35910;BME280;22004;49.120;-0.200;2022-08-19T11:58:57;101517.72;;;20.71;95.33
35910;BME280;22004;49.120;-0.200;2022-08-19T12:01:24;101504.47;;;20.79;93.09
35910;BME280;22004;49.120;-0.200;2022-08-19T12:03:52;101508.44;;;21.19;95.84
35910;BME280;22004;49.120;-0.200;2022-08-19T12:06:22;101508.53;;;21.50;96.10
35910;BME280;22004;49.120;-0.200;2022-08-19T12:08:53;101510.13;;;21.64;96.36
35910;BME280;22004;49.120;-0.200;2022-08-19T12:11:20;101516.34;;;21.32;94.46
35910;BME280;22004;49.120;-0.200;2022-08-19T12:13:45;101512.47;;;21.13;91.97
35910;BME280;22004;49.120;-0.200;2022-08-19T12:16:20;101506.09;;;21.26;93.31
35910;BME280;22004;49.120;-0.200;2022-08-19T12:18:46;101506.59;;;21.19;93.39
35910;BME280;22004;49.120;-0.200;2022-08-19T12:21:18;101511.66;;;21.01;92.66
35910;BME280;22004;49.120;-0.200;2022-08-19T12:23:46;101503.09;;;20.96;95.07
35910;BME280;22004;49.120;-0.200;2022-08-19T12:26:12;101499.78;;;21.04;95.16
35910;BME280;22004;49.120;-0.200;2022-08-19T12:28:38;101502.03;;;21.20;90.99
35910;BME280;22004;49.120;-0.200;2022-08-19T12:31:04;101507.13;;;21.34;90.07
35910;BME280;22004;49.120;-0.200;2022-08-19T12:33:30;101503.88;;;21.52;92.69
35910;BME280;22004;49.120;-0.200;2022-08-19T12:36:01;101502.94;;;21.53;92.16
35910;BME280;22004;49.120;-0.200;2022-08-19T12:38:28;101507.69;;;21.49;90.87
35910;BME280;22004;49.120;-0.200;2022-08-19T12:40:53;101502.94;;;21.53;91.10
35910;BME280;22004;49.120;-0.200;2022-08-19T12:43:19;101502.56;;;21.46;90.80
35910;BME280;22004;49.120;-0.200;2022-08-19T12:45:45;101497.94;;;21.69;93.14
35910;BME280;22004;49.120;-0.200;2022-08-19T12:48:12;101495.03;;;21.61;91.49
35910;BME280;22004;49.120;-0.200;2022-08-19T12:50:44;101502.56;;;21.46;91.25
35910;BME280;22004;49.120;-0.200;2022-08-19T12:53:13;101494.91;;;21.84;93.25
35910;BME280;22004;49.120;-0.200;2022-08-19T12:55:38;101497.94;;;21.91;90.83